sensor_id;sensor_type;location;lat;lon;timestamp;P1;durP1;ratioP1;P2;durP2;ratioP2
13687;SDS011;6916;51.504;7.416;2022-11-20T00:04:31;18.13;;;13.57;;
13687;SDS011;6916;51.504;7.416;2022-11-20T00:09:56;20.67;;;15.07;;
13687;SDS011;6916;51.504;7.416;2022-11-20T00:15:18;22.07;;;16.80;;
13687;SDS011;6916;51.504;7.416;2022-11-20T00:20:41;21.97;;;16.60;;
13687;SDS011;6916;51.504;7.416;2022-11-20T00:26:05;20.27;;;15.10;;
13687;SDS011;6916;51.504;7.416;2022-11-20T00:31:28;23.23;;;16.30;;
13687;SDS011;6916;51.504;7.416;2022-11-20T00:36:50;19.47;;;14.43;;
13687;SDS011;6916;51.504;7.416;2022-11-20T00:42:12;17.87;;;13.80;;
13687;SDS011;6916;51.504;7.416;2022-11-20T00:47:35;19.03;;;15.10;;
13687;SDS011;6916;51.504;7.416;2022-11-20T00:52:57;16.83;;;13.37;;
13687;SDS011;6916;51.504;7.416;2022-11-20T00:58:19;18.00;;;13.57;;
13687;SDS011;6916;51.504;7.416;2022-11-20T01:03:42;18.30;;;13.97;;
13687;SDS011;6916;51.504;7.416;2022-11-20T01:09:14;21.73;;;14.80;;
13687;SDS011;6916;51.504;7.416;2022-11-20T01:14:37;17.30;;;13.47;;
13687;SDS011;6916;51.504;7.416;2022-11-20T01:19:59;18.50;;;14.20;;
13687;SDS011;6916;51.504;7.416;2022-11-20T01:25:24;17.20;;;13.33;;
13687;SDS011;6916;51.504;7.416;2022-11-20T01:30:46;18.23;;;13.53;;
13687;SDS011;6916;51.504;7.416;2022-11-20T01:36:08;17.13;;;12.63;;
13687;SDS011;6916;51.504;7.416;2022-11-20T01:41:33;16.60;;;12.80;;
13687;SDS011;6916;51.504;7.416;2022-11-20T01:47:34;17.73;;;13.87;;
13687;SDS011;6916;51.504;7.416;2022-11-20T01:53:02;17.47;;;13.50;;
13687;SDS011;6916;51.504;7.416;2022-11-20T01:58:28;18.60;;;14.53;;
13687;SDS011;6916;51.504;7.416;2022-11-20T02:03:53;15.33;;;12.27;;
13687;SDS011;6916;51.504;7.416;2022-11-20T02:09:16;16.57;;;12.90;;
13687;SDS011;6916;51.504;7.416;2022-11-20T02:14:38;17.20;;;13.37;;
13687;SDS011;6916;51.504;7.416;2022-11-20T02:20:01;16.00;;;12.60;;
13687;SDS011;6916;51.504;7.416;2022-11-20T02:25:24;19.50;;;12.57;;
13687;SDS011;6916;51.504;7.416;2022-11-20T02:30:58;17.90;;;12.80;;
13687;SDS011;6916;51.504;7.416;2022-11-20T02:36:20;15.17;;;12.00;;
13687;SDS011;6916;51.504;7.416;2022-11-20T02:41:42;17.97;;;12.90;;
13687;SDS011;6916;51.504;7.416;2022-11-20T02:47:04;15.83;;;12.33;;
13687;SDS011;6916;51.504;7.416;2022-11-20T02:52:27;14.07;;;11.77;;
13687;SDS011;6916;51.504;7.416;2022-11-20T02:57:49;15.77;;;11.93;;
13687;SDS011;6916;51.504;7.416;2022-11-20T03:03:12;14.73;;;11.87;;
13687;SDS011;6916;51.504;7.416;2022-11-20T03:08:41;16.07;;;12.43;;
13687;SDS011;6916;51.504;7.416;2022-11-20T03:14:04;15.47;;;12.20;;
13687;SDS011;6916;51.504;7.416;2022-11-20T03:19:27;15.33;;;12.03;;
13687;SDS011;6916;51.504;7.416;2022-11-20T03:24:49;15.43;;;11.57;;
13687;SDS011;6916;51.504;7.416;2022-11-20T03:30:15;16.00;;;11.93;;
13687;SDS011;6916;51.504;7.416;2022-11-20T03:35:37;14.40;;;12.20;;
13687;SDS011;6916;51.504;7.416;2022-11-20T03:41:06;14.67;;;12.40;;
13687;SDS011;6916;51.504;7.416;2022-11-20T03:46:31;14.80;;;12.27;;
13687;SDS011;6916;51.504;7.416;2022-11-20T03:51:55;14.77;;;11.87;;
13687;SDS011;6916;51.504;7.416;2022-11-20T03:57:17;15.13;;;11.63;;
13687;SDS011;6916;51.504;7.416;2022-11-20T04:02:44;15.20;;;12.27;;
13687;SDS011;6916;51.504;7.416;2022-11-20T04:08:06;17.57;;;12.93;;
13687;SDS011;6916;51.504;7.416;2022-11-20T04:13:28;16.10;;;12.53;;
13687;SDS011;6916;51.504;7.416;2022-11-20T04:18:53;15.37;;;12.10;;
13687;SDS011;6916;51.504;7.416;2022-11-20T04:24:20;18.13;;;13.13;;
13687;SDS011;6916;51.504;7.416;2022-11-20T04:29:42;14.63;;;11.33;;
13687;SDS011;6916;51.504;7.416;2022-11-20T04:35:05;14.40;;;11.63;;
13687;SDS011;6916;51.504;7.416;2022-11-20T04:40:27;14.27;;;12.30;;
13687;SDS011;6916;51.504;7.416;2022-11-20T04:45:51;14.57;;;11.63;;
13687;SDS011;6916;51.504;7.416;2022-11-20T04:51:16;13.77;;;10.93;;
13687;SDS011;6916;51.504;7.416;2022-11-20T04:56:48;12.90;;;10.73;;
13687;SDS011;6916;51.504;7.416;2022-11-20T05:02:12;17.10;;;13.47;;
13687;SDS011;6916;51.504;7.416;2022-11-20T05:07:35;17.30;;;13.53;;
13687;SDS011;6916;51.504;7.416;2022-11-20T05:12:58;17.53;;;13.70;;
13687;SDS011;6916;51.504;7.416;2022-11-20T05:18:22;16.33;;;13.60;;
13687;SDS011;6916;51.504;7.416;2022-11-20T05:23:44;16.47;;;13.17;;
13687;SDS011;6916;51.504;7.416;2022-11-20T05:29:11;16.53;;;13.93;;
13687;SDS011;6916;51.504;7.416;2022-11-20T05:34:34;15.77;;;12.87;;
13687;SDS011;6916;51.504;7.416;2022-11-20T05:39:56;16.63;;;12.80;;
13687;SDS011;6916;51.504;7.416;2022-11-20T05:45:18;16.40;;;13.07;;
13687;SDS011;6916;51.504;7.416;2022-11-20T05:50:40;16.10;;;12.90;;
13687;SDS011;6916;51.504;7.416;2022-11-20T05:56:05;16.23;;;12.60;;
13687;SDS011;6916;51.504;7.416;2022-11-20T06:01:34;15.17;;;12.87;;
13687;SDS011;6916;51.504;7.416;2022-11-20T06:06:57;15.50;;;12.30;;
13687;SDS011;6916;51.504;7.416;2022-11-20T06:12:21;14.50;;;11.97;;
13687;SDS011;6916;51.504;7.416;2022-11-20T06:17:45;13.90;;;11.67;;
13687;SDS011;6916;51.504;7.416;2022-11-20T06:23:07;17.13;;;12.03;;
13687;SDS011;6916;51.504;7.416;2022-11-20T06:28:30;16.33;;;13.27;;
13687;SDS011;6916;51.504;7.416;2022-11-20T06:33:52;15.27;;;12.30;;
13687;SDS011;6916;51.504;7.416;2022-11-20T06:39:14;13.80;;;10.87;;
13687;SDS011;6916;51.504;7.416;2022-11-20T06:44:36;15.10;;;11.33;;
13687;SDS011;6916;51.504;7.416;2022-11-20T06:49:58;14.57;;;11.47;;
13687;SDS011;6916;51.504;7.416;2022-11-20T06:55:20;15.07;;;12.33;;
13687;SDS011;6916;51.504;7.416;2022-11-20T07:00:42;14.23;;;10.90;;
13687;SDS011;6916;51.504;7.416;2022-11-20T07:06:05;12.97;;;11.07;;
13687;SDS011;6916;51.504;7.416;2022-11-20T07:11:27;17.43;;;12.40;;
13687;SDS011;6916;51.504;7.416;2022-11-20T07:16:50;39.50;;;29.37;;
13687;SDS011;6916;51.504;7.416;2022-11-20T07:22:12;15.30;;;11.37;;
13687;SDS011;6916;51.504;7.416;2022-11-20T07:27:35;13.57;;;11.17;;
13687;SDS011;6916;51.504;7.416;2022-11-20T07:32:58;15.90;;;11.80;;
13687;SDS011;6916;51.504;7.416;2022-11-20T07:38:20;15.67;;;11.63;;
13687;SDS011;6916;51.504;7.416;2022-11-20T07:43:44;17.17;;;12.13;;
13687;SDS011;6916;51.504;7.416;2022-11-20T07:49:06;15.83;;;11.23;;
13687;SDS011;6916;51.504;7.416;2022-11-20T07:54:28;14.60;;;11.97;;
13687;SDS011;6916;51.504;7.416;2022-11-20T07:59:51;14.90;;;11.03;;
13687;SDS011;6916;51.504;7.416;2022-11-20T08:05:13;13.83;;;11.47;;
13687;SDS011;6916;51.504;7.416;2022-11-20T08:10:36;14.77;;;11.93;;
13687;SDS011;6916;51.504;7.416;2022-11-20T08:15:58;15.77;;;11.40;;
13687;SDS011;6916;51.504;7.416;2022-11-20T08:21:20;14.87;;;11.10;;
13687;SDS011;6916;51.504;7.416;2022-11-20T08:26:42;17.13;;;12.17;;
13687;SDS011;6916;51.504;7.416;2022-11-20T08:32:05;15.27;;;12.00;;
13687;SDS011;6916;51.504;7.416;2022-11-20T08:37:27;16.23;;;12.30;;
13687;SDS011;6916;51.504;7.416;2022-11-20T08:42:51;17.60;;;12.17;;
13687;SDS011;6916;51.504;7.416;2022-11-20T08:48:14;16.07;;;11.73;;
13687;SDS011;6916;51.504;7.416;2022-11-20T08:53:38;22.57;;;12.13;;
13687;SDS011;6916;51.504;7.416;2022-11-20T08:59:04;15.37;;;11.70;;
13687;SDS011;6916;51.504;7.416;2022-11-20T09:04:27;15.40;;;12.40;;
13687;SDS011;6916;51.504;7.416;2022-11-20T09:09:50;16.93;;;12.97;;
13687;SDS011;6916;51.504;7.416;2022-11-20T09:15:13;15.23;;;11.70;;
13687;SDS011;6916;51.504;7.416;2022-11-20T09:20:35;15.17;;;12.63;;
13687;SDS011;6916;51.504;7.416;2022-11-20T09:25:57;15.33;;;12.20;;
13687;SDS011;6916;51.504;7.416;2022-11-20T09:31:22;19.67;;;13.53;;
13687;SDS011;6916;51.504;7.416;2022-11-20T09:36:46;15.93;;;13.37;;
13687;SDS011;6916;51.504;7.416;2022-11-20T09:59:43;16.50;;;10.67;;
13687;SDS011;6916;51.504;7.416;2022-11-20T10:05:20;15.50;;;10.37;;
13687;SDS011;6916;51.504;7.416;2022-11-20T10:10:46;14.83;;;10.50;;
13687;SDS011;6916;51.504;7.416;2022-11-20T10:33:16;13.87;;;10.20;;
13687;SDS011;6916;51.504;7.416;2022-11-20T10:38:43;8.93;;;7.03;;
13687;SDS011;6916;51.504;7.416;2022-11-20T10:50:04;9.93;;;7.30;;
13687;SDS011;6916;51.504;7.416;2022-11-20T10:55:41;8.50;;;6.90;;
13687;SDS011;6916;51.504;7.416;2022-11-20T11:01:14;7.70;;;6.30;;
13687;SDS011;6916;51.504;7.416;2022-11-20T11:06:42;8.70;;;6.13;;
13687;SDS011;6916;51.504;7.416;2022-11-20T11:12:09;9.90;;;8.20;;
13687;SDS011;6916;51.504;7.416;2022-11-20T11:17:34;8.23;;;6.47;;
13687;SDS011;6916;51.504;7.416;2022-11-20T11:22:59;7.23;;;5.93;;
13687;SDS011;6916;51.504;7.416;2022-11-20T11:28:22;9.23;;;6.97;;
13687;SDS011;6916;51.504;7.416;2022-11-20T11:33:47;10.07;;;7.70;;
13687;SDS011;6916;51.504;7.416;2022-11-20T11:39:18;17.13;;;15.07;;
13687;SDS011;6916;51.504;7.416;2022-11-20T11:44:49;11.33;;;8.90;;
13687;SDS011;6916;51.504;7.416;2022-11-20T11:50:27;10.90;;;7.17;;
13687;SDS011;6916;51.504;7.416;2022-11-20T11:56:07;10.57;;;9.03;;
13687;SDS011;6916;51.504;7.416;2022-11-20T12:06:58;9.93;;;8.13;;
13687;SDS011;6916;51.504;7.416;2022-11-20T12:12:24;12.90;;;11.33;;
13687;SDS011;6916;51.504;7.416;2022-11-20T12:17:50;9.37;;;7.37;;
13687;SDS011;6916;51.504;7.416;2022-11-20T12:23:21;10.10;;;7.57;;
13687;SDS011;6916;51.504;7.416;2022-11-20T12:39:49;8.53;;;6.10;;
13687;SDS011;6916;51.504;7.416;2022-11-20T12:50:50;7.37;;;6.33;;
13687;SDS011;6916;51.504;7.416;2022-11-20T13:01:47;8.97;;;7.63;;
13687;SDS011;6916;51.504;7.416;2022-11-20T13:07:13;9.33;;;7.70;;
13687;SDS011;6916;51.504;7.416;2022-11-20T13:12:38;10.10;;;7.20;;
13687;SDS011;6916;51.504;7.416;2022-11-20T13:18:15;9.40;;;7.53;;
13687;SDS011;6916;51.504;7.416;2022-11-20T13:23:38;10.53;;;8.13;;
13687;SDS011;6916;51.504;7.416;2022-11-20T13:29:08;10.13;;;8.30;;
13687;SDS011;6916;51.504;7.416;2022-11-20T13:34:33;9.93;;;7.67;;
13687;SDS011;6916;51.504;7.416;2022-11-20T13:40:11;11.70;;;8.27;;
13687;SDS011;6916;51.504;7.416;2022-11-20T13:45:35;11.90;;;8.27;;
13687;SDS011;6916;51.504;7.416;2022-11-20T13:51:02;10.30;;;8.10;;
13687;SDS011;6916;51.504;7.416;2022-11-20T14:01:59;11.27;;;8.40;;
13687;SDS011;6916;51.504;7.416;2022-11-20T14:07:24;9.73;;;7.63;;
13687;SDS011;6916;51.504;7.416;2022-11-20T14:12:49;11.67;;;7.63;;
13687;SDS011;6916;51.504;7.416;2022-11-20T14:18:19;12.53;;;8.23;;
13687;SDS011;6916;51.504;7.416;2022-11-20T14:23:43;9.83;;;8.17;;
13687;SDS011;6916;51.504;7.416;2022-11-20T14:29:05;9.77;;;7.83;;
13687;SDS011;6916;51.504;7.416;2022-11-20T14:34:28;10.70;;;7.93;;
13687;SDS011;6916;51.504;7.416;2022-11-20T14:39:54;10.27;;;8.07;;
13687;SDS011;6916;51.504;7.416;2022-11-20T14:45:19;11.47;;;8.60;;
13687;SDS011;6916;51.504;7.416;2022-11-20T14:50:43;12.83;;;10.13;;
13687;SDS011;6916;51.504;7.416;2022-11-20T14:56:05;12.33;;;9.70;;
13687;SDS011;6916;51.504;7.416;2022-11-20T15:01:28;11.50;;;8.93;;
13687;SDS011;6916;51.504;7.416;2022-11-20T15:06:53;14.07;;;8.77;;
13687;SDS011;6916;51.504;7.416;2022-11-20T15:12:16;11.17;;;9.20;;
13687;SDS011;6916;51.504;7.416;2022-11-20T15:17:39;12.23;;;9.17;;
13687;SDS011;6916;51.504;7.416;2022-11-20T15:23:07;13.67;;;9.97;;
13687;SDS011;6916;51.504;7.416;2022-11-20T15:28:35;13.97;;;10.43;;
13687;SDS011;6916;51.504;7.416;2022-11-20T15:34:00;15.27;;;10.53;;
13687;SDS011;6916;51.504;7.416;2022-11-20T15:39:22;14.47;;;10.57;;
13687;SDS011;6916;51.504;7.416;2022-11-20T15:44:44;15.00;;;10.67;;
13687;SDS011;6916;51.504;7.416;2022-11-20T15:50:09;15.13;;;11.70;;
13687;SDS011;6916;51.504;7.416;2022-11-20T15:55:35;13.70;;;10.17;;
13687;SDS011;6916;51.504;7.416;2022-11-20T16:00:57;15.63;;;11.13;;
13687;SDS011;6916;51.504;7.416;2022-11-20T16:06:19;14.83;;;11.50;;
13687;SDS011;6916;51.504;7.416;2022-11-20T16:11:41;17.53;;;11.90;;
13687;SDS011;6916;51.504;7.416;2022-11-20T16:17:03;14.90;;;12.13;;
13687;SDS011;6916;51.504;7.416;2022-11-20T16:22:26;16.83;;;12.13;;
13687;SDS011;6916;51.504;7.416;2022-11-20T16:27:49;17.33;;;12.70;;
13687;SDS011;6916;51.504;7.416;2022-11-20T16:33:12;17.47;;;13.17;;
13687;SDS011;6916;51.504;7.416;2022-11-20T16:38:35;16.73;;;13.00;;
13687;SDS011;6916;51.504;7.416;2022-11-20T16:43:58;19.37;;;12.77;;
13687;SDS011;6916;51.504;7.416;2022-11-20T16:49:22;19.20;;;13.73;;
13687;SDS011;6916;51.504;7.416;2022-11-20T16:54:44;18.00;;;13.07;;
13687;SDS011;6916;51.504;7.416;2022-11-20T17:00:06;18.77;;;13.43;;
13687;SDS011;6916;51.504;7.416;2022-11-20T17:05:29;20.27;;;14.60;;
13687;SDS011;6916;51.504;7.416;2022-11-20T17:10:52;17.03;;;12.37;;
13687;SDS011;6916;51.504;7.416;2022-11-20T17:16:15;23.30;;;15.47;;
13687;SDS011;6916;51.504;7.416;2022-11-20T17:21:38;22.37;;;15.57;;
13687;SDS011;6916;51.504;7.416;2022-11-20T17:27:01;24.70;;;16.20;;
13687;SDS011;6916;51.504;7.416;2022-11-20T17:32:24;24.83;;;16.13;;
13687;SDS011;6916;51.504;7.416;2022-11-20T17:37:46;27.50;;;16.73;;
13687;SDS011;6916;51.504;7.416;2022-11-20T17:43:08;24.63;;;15.90;;
13687;SDS011;6916;51.504;7.416;2022-11-20T17:48:30;22.93;;;16.70;;
13687;SDS011;6916;51.504;7.416;2022-11-20T17:53:54;27.30;;;17.87;;
13687;SDS011;6916;51.504;7.416;2022-11-20T17:59:18;27.47;;;17.87;;
13687;SDS011;6916;51.504;7.416;2022-11-20T18:04:41;27.80;;;19.00;;
13687;SDS011;6916;51.504;7.416;2022-11-20T18:10:05;25.37;;;16.87;;
13687;SDS011;6916;51.504;7.416;2022-11-20T18:15:27;27.40;;;17.43;;
13687;SDS011;6916;51.504;7.416;2022-11-20T18:20:52;27.80;;;17.70;;
13687;SDS011;6916;51.504;7.416;2022-11-20T18:26:14;28.93;;;17.60;;
13687;SDS011;6916;51.504;7.416;2022-11-20T18:31:36;27.40;;;17.60;;
13687;SDS011;6916;51.504;7.416;2022-11-20T18:36:58;28.33;;;17.40;;
13687;SDS011;6916;51.504;7.416;2022-11-20T18:42:20;24.80;;;14.83;;
13687;SDS011;6916;51.504;7.416;2022-11-20T18:48:01;23.73;;;14.93;;
13687;SDS011;6916;51.504;7.416;2022-11-20T18:53:24;24.63;;;14.30;;
13687;SDS011;6916;51.504;7.416;2022-11-20T18:58:46;19.20;;;12.50;;
13687;SDS011;6916;51.504;7.416;2022-11-20T19:04:09;17.13;;;11.47;;
13687;SDS011;6916;51.504;7.416;2022-11-20T19:09:33;20.60;;;12.07;;
13687;SDS011;6916;51.504;7.416;2022-11-20T19:14:58;17.40;;;11.57;;
13687;SDS011;6916;51.504;7.416;2022-11-20T19:20:21;11.27;;;8.20;;
13687;SDS011;6916;51.504;7.416;2022-11-20T19:25:43;13.13;;;9.50;;
13687;SDS011;6916;51.504;7.416;2022-11-20T19:31:07;11.70;;;7.80;;
13687;SDS011;6916;51.504;7.416;2022-11-20T19:36:33;11.07;;;8.10;;
13687;SDS011;6916;51.504;7.416;2022-11-20T19:41:58;18.03;;;12.33;;
13687;SDS011;6916;51.504;7.416;2022-11-20T19:47:20;14.43;;;10.53;;
13687;SDS011;6916;51.504;7.416;2022-11-20T19:52:42;14.87;;;8.90;;
13687;SDS011;6916;51.504;7.416;2022-11-20T19:58:05;22.37;;;14.43;;
13687;SDS011;6916;51.504;7.416;2022-11-20T20:03:27;18.83;;;11.77;;
13687;SDS011;6916;51.504;7.416;2022-11-20T20:08:53;13.73;;;8.77;;
13687;SDS011;6916;51.504;7.416;2022-11-20T20:14:24;10.27;;;7.37;;
13687;SDS011;6916;51.504;7.416;2022-11-20T20:19:47;10.90;;;7.10;;
13687;SDS011;6916;51.504;7.416;2022-11-20T20:25:10;17.87;;;10.73;;
13687;SDS011;6916;51.504;7.416;2022-11-20T20:30:34;24.17;;;16.30;;
13687;SDS011;6916;51.504;7.416;2022-11-20T20:35:57;28.87;;;17.77;;
13687;SDS011;6916;51.504;7.416;2022-11-20T20:41:20;27.70;;;17.40;;
13687;SDS011;6916;51.504;7.416;2022-11-20T20:46:43;25.77;;;15.43;;
13687;SDS011;6916;51.504;7.416;2022-11-20T20:52:05;25.37;;;17.57;;
13687;SDS011;6916;51.504;7.416;2022-11-20T20:57:29;26.60;;;17.53;;
13687;SDS011;6916;51.504;7.416;2022-11-20T21:02:51;23.70;;;16.67;;
13687;SDS011;6916;51.504;7.416;2022-11-20T21:08:13;30.17;;;18.40;;
13687;SDS011;6916;51.504;7.416;2022-11-20T21:13:45;29.03;;;17.97;;
13687;SDS011;6916;51.504;7.416;2022-11-20T21:19:08;29.27;;;18.67;;
13687;SDS011;6916;51.504;7.416;2022-11-20T21:24:32;21.73;;;14.63;;
13687;SDS011;6916;51.504;7.416;2022-11-20T21:29:55;24.40;;;16.93;;
13687;SDS011;6916;51.504;7.416;2022-11-20T21:35:17;20.20;;;15.10;;
13687;SDS011;6916;51.504;7.416;2022-11-20T21:40:39;21.77;;;15.63;;
13687;SDS011;6916;51.504;7.416;2022-11-20T21:46:02;24.60;;;16.37;;
13687;SDS011;6916;51.504;7.416;2022-11-20T21:51:26;19.40;;;13.93;;
13687;SDS011;6916;51.504;7.416;2022-11-20T21:56:50;15.87;;;12.20;;
13687;SDS011;6916;51.504;7.416;2022-11-20T22:02:12;20.07;;;14.37;;
13687;SDS011;6916;51.504;7.416;2022-11-20T22:07:34;20.53;;;14.53;;
13687;SDS011;6916;51.504;7.416;2022-11-20T22:12:56;22.97;;;15.80;;
13687;SDS011;6916;51.504;7.416;2022-11-20T22:18:48;33.13;;;20.60;;
13687;SDS011;6916;51.504;7.416;2022-11-20T22:24:11;26.53;;;17.53;;
13687;SDS011;6916;51.504;7.416;2022-11-20T22:29:34;26.43;;;17.53;;
13687;SDS011;6916;51.504;7.416;2022-11-20T22:34:57;21.90;;;16.00;;
13687;SDS011;6916;51.504;7.416;2022-11-20T22:40:19;21.93;;;15.50;;
13687;SDS011;6916;51.504;7.416;2022-11-20T22:45:41;19.63;;;13.27;;
13687;SDS011;6916;51.504;7.416;2022-11-20T22:51:05;18.77;;;13.93;;
13687;SDS011;6916;51.504;7.416;2022-11-20T22:56:28;16.73;;;12.87;;
13687;SDS011;6916;51.504;7.416;2022-11-20T23:01:51;18.00;;;12.77;;
13687;SDS011;6916;51.504;7.416;2022-11-20T23:07:13;16.93;;;12.90;;
13687;SDS011;6916;51.504;7.416;2022-11-20T23:12:35;15.27;;;12.20;;
13687;SDS011;6916;51.504;7.416;2022-11-20T23:17:58;13.87;;;10.87;;
13687;SDS011;6916;51.504;7.416;2022-11-20T23:23:20;16.23;;;11.83;;
13687;SDS011;6916;51.504;7.416;2022-11-20T23:28:42;12.87;;;11.30;;
13687;SDS011;6916;51.504;7.416;2022-11-20T23:34:06;15.57;;;12.53;;
13687;SDS011;6916;51.504;7.416;2022-11-20T23:39:28;17.17;;;14.07;;
13687;SDS011;6916;51.504;7.416;2022-11-20T23:44:50;15.13;;;13.20;;
13687;SDS011;6916;51.504;7.416;2022-11-20T23:50:12;14.90;;;12.77;;
13687;SDS011;6916;51.504;7.416;2022-11-20T23:55:34;15.33;;;12.10;;
